createdAt,value
2018-04-30T00:00:01.760Z,19.04
2018-04-30T00:00:42.287Z,18.99
2018-04-30T00:01:22.832Z,19.07
2018-04-30T00:02:03.373Z,19.08
2018-04-30T00:02:43.894Z,19.11
2018-04-30T00:03:24.424Z,19.19
2018-04-30T00:04:05.907Z,19.16
2018-04-30T00:04:45.488Z,19.21
2018-04-30T00:05:26.021Z,19.22
2018-04-30T00:06:06.551Z,19.23
2018-04-30T00:06:47.079Z,19.25
2018-04-30T00:07:27.607Z,19.36
2018-04-30T00:08:08.134Z,19.32
2018-04-30T00:08:48.672Z,19.36
2018-04-30T00:09:29.201Z,19.4
2018-04-30T00:10:09.733Z,19.29
2018-04-30T00:10:50.259Z,19.44
2018-04-30T00:11:30.791Z,19.43
2018-04-30T00:12:11.327Z,19.41
2018-04-30T00:12:51.860Z,19.47
2018-04-30T00:13:32.912Z,19.4
2018-04-30T00:14:12.910Z,19.41
2018-04-30T00:14:53.434Z,19.48
2018-04-30T00:15:33.963Z,19.47
2018-04-30T00:16:14.496Z,19.48
2018-04-30T00:16:55.023Z,19.39
2018-04-30T00:17:35.552Z,19.5
2018-04-30T00:18:16.079Z,19.51
2018-04-30T00:18:56.613Z,19.51
2018-04-30T00:19:37.196Z,19.54
2018-04-30T00:20:17.687Z,19.58
2018-04-30T00:20:58.220Z,19.5
2018-04-30T00:21:38.746Z,19.48
2018-04-30T00:22:19.283Z,19.5
2018-04-30T00:22:59.816Z,19.56
2018-04-30T00:23:40.338Z,19.39
2018-04-30T00:24:20.866Z,19.51
2018-04-30T00:25:01.398Z,19.43
2018-04-30T00:25:41.934Z,19.4
2018-04-30T00:26:22.464Z,19.41
2018-04-30T00:27:02.998Z,19.4
2018-04-30T00:27:43.528Z,19.47
2018-04-30T00:28:24.063Z,19.43
2018-04-30T00:29:04.593Z,19.4
2018-04-30T00:29:45.125Z,19.43
2018-04-30T00:30:25.644Z,19.43
2018-04-30T00:31:06.175Z,19.37
2018-04-30T00:31:46.704Z,19.39
2018-04-30T00:32:27.915Z,19.4
2018-04-30T00:33:07.776Z,19.29
2018-04-30T00:33:48.304Z,19.37
2018-04-30T00:34:28.836Z,19.37
2018-04-30T00:35:09.369Z,19.33
2018-04-30T00:35:49.905Z,19.32
2018-04-30T00:36:30.436Z,19.37
2018-04-30T00:37:10.963Z,19.29
2018-04-30T00:37:51.499Z,19.36
2018-04-30T00:38:32.034Z,19.23
2018-04-30T00:39:12.562Z,19.25
2018-04-30T00:39:53.094Z,19.16
2018-04-30T00:40:33.624Z,19.23
2018-04-30T00:41:14.152Z,19.21
2018-04-30T00:41:54.679Z,19.16
2018-04-30T00:42:35.212Z,19.16
2018-04-30T00:43:15.747Z,19.13
2018-04-30T00:43:56.277Z,19.16
2018-04-30T00:44:36.806Z,19.18
2018-04-30T00:45:17.335Z,19.11
2018-04-30T00:45:58.376Z,19.16
2018-04-30T00:46:38.893Z,19.11
2018-04-30T00:47:19.425Z,19.07
2018-04-30T00:48:00.917Z,19.1
2018-04-30T00:48:40.484Z,19.08
2018-04-30T00:49:21.016Z,19.06
2018-04-30T00:50:01.534Z,19.08
2018-04-30T00:50:42.061Z,18.99
2018-04-30T00:51:23.428Z,19.06
2018-04-30T00:52:03.117Z,19.07
2018-04-30T00:52:43.642Z,19.07
2018-04-30T00:53:24.170Z,19
2018-04-30T00:54:04.700Z,18.95
2018-04-30T00:54:45.231Z,19.04
2018-04-30T00:55:25.743Z,18.98
2018-04-30T00:56:06.273Z,19
2018-04-30T00:56:46.795Z,18.87
2018-04-30T00:57:27.323Z,18.9
2018-04-30T00:58:07.851Z,18.87
2018-04-30T00:58:48.374Z,18.84
2018-04-30T00:59:28.903Z,18.84
2018-04-30T01:00:09.436Z,18.84
2018-04-30T01:00:49.961Z,18.87
2018-04-30T01:01:30.488Z,18.82
2018-04-30T01:02:11.022Z,18.84
2018-04-30T01:02:51.551Z,18.82
2018-04-30T01:03:32.092Z,18.78
2018-04-30T01:04:12.613Z,18.84
2018-04-30T01:04:53.146Z,18.78
2018-04-30T01:05:33.669Z,18.72
2018-04-30T01:06:14.194Z,18.78
2018-04-30T01:06:54.724Z,18.73
2018-04-30T01:07:35.239Z,18.69
2018-04-30T01:08:16.433Z,18.72
2018-04-30T01:08:56.966Z,18.66
2018-04-30T01:09:37.491Z,18.67
2018-04-30T01:10:18.027Z,18.67
2018-04-30T01:10:59.425Z,18.66
2018-04-30T01:11:39.107Z,18.67
2018-04-30T01:12:19.639Z,18.57
2018-04-30T01:13:00.164Z,18.55
2018-04-30T01:13:40.690Z,18.55
2018-04-30T01:14:21.890Z,18.58
2018-04-30T01:15:02.422Z,18.58
2018-04-30T01:15:42.951Z,18.52
2018-04-30T01:16:23.484Z,18.55
2018-04-30T01:17:04.015Z,18.57
2018-04-30T01:17:44.542Z,18.55
2018-04-30T01:18:25.074Z,18.54
2018-04-30T01:19:05.610Z,18.58
2018-04-30T01:19:46.926Z,18.57
2018-04-30T01:20:26.656Z,18.55
2018-04-30T01:21:07.168Z,18.54
2018-04-30T01:21:47.695Z,18.54
2018-04-30T01:22:28.225Z,18.52
2018-04-30T01:23:08.753Z,18.57
2018-04-30T01:23:49.891Z,18.47
2018-04-30T01:24:30.422Z,18.5
2018-04-30T01:25:11.578Z,18.48
2018-04-30T01:25:52.103Z,18.47
2018-04-30T01:26:32.630Z,18.45
2018-04-30T01:27:13.928Z,18.44
2018-04-30T01:27:53.681Z,18.39
2018-04-30T01:28:34.211Z,18.55
2018-04-30T01:29:14.739Z,18.48
2018-04-30T01:29:55.265Z,18.52
2018-04-30T01:30:35.788Z,18.44
2018-04-30T01:31:16.321Z,18.48
2018-04-30T01:31:56.853Z,18.39
2018-04-30T01:32:37.381Z,18.5
2018-04-30T01:33:17.912Z,18.32
2018-04-30T01:33:58.440Z,18.47
2018-04-30T01:34:38.972Z,18.3
2018-04-30T01:35:19.497Z,18.41
2018-04-30T01:36:00.029Z,18.37
2018-04-30T01:36:40.563Z,18.37
2018-04-30T01:37:21.086Z,18.32
2018-04-30T01:38:01.617Z,18.37
2018-04-30T01:38:42.136Z,18.37
2018-04-30T01:39:22.666Z,18.39
2018-04-30T01:40:03.176Z,18.29
2018-04-30T01:40:43.704Z,18.29
2018-04-30T01:41:24.224Z,18.33
2018-04-30T01:42:04.753Z,18.32
2018-04-30T01:42:45.284Z,18.3
2018-04-30T01:43:25.811Z,18.33
2018-04-30T01:44:06.341Z,18.35
2018-04-30T01:44:46.872Z,18.32
2018-04-30T01:45:27.406Z,18.18
2018-04-30T01:46:08.430Z,18.25
2018-04-30T01:46:48.463Z,18.2
2018-04-30T01:47:28.976Z,18.18
2018-04-30T01:48:10.434Z,18.26
2018-04-30T01:48:50.045Z,18.25
2018-04-30T01:49:30.575Z,18.25
2018-04-30T01:50:11.935Z,18.17
2018-04-30T01:50:51.631Z,18.18
2018-04-30T01:51:32.743Z,18.14
2018-04-30T01:52:13.303Z,18.11
2018-04-30T01:52:53.832Z,18.2
2018-04-30T01:53:34.933Z,18.15
2018-04-30T01:54:14.890Z,18.11
2018-04-30T01:54:55.422Z,18.1
2018-04-30T01:55:36.188Z,18.03
2018-04-30T01:56:16.711Z,18
2018-04-30T01:56:58.755Z,17.99
2018-04-30T01:57:39.285Z,17.99
2018-04-30T01:58:19.812Z,18.02
2018-04-30T01:59:00.340Z,18.02
2018-04-30T01:59:40.872Z,17.97
2018-04-30T02:00:21.405Z,18.03
2018-04-30T02:01:01.948Z,17.97
2018-04-30T02:01:43.394Z,17.92
2018-04-30T02:02:23.923Z,17.86
2018-04-30T02:03:04.438Z,17.89
2018-04-30T02:03:44.967Z,17.9
2018-04-30T02:04:25.495Z,17.89
2018-04-30T02:05:08.441Z,17.9
2018-04-30T02:05:48.761Z,17.89
2018-04-30T02:06:29.271Z,17.86
2018-04-30T02:07:09.805Z,17.89
2018-04-30T02:07:50.342Z,17.92
2018-04-30T02:08:30.864Z,17.87
2018-04-30T02:09:11.388Z,17.86
2018-04-30T02:09:51.914Z,17.79
2018-04-30T02:10:32.441Z,17.82
2018-04-30T02:11:13.443Z,17.84
2018-04-30T02:11:53.994Z,17.81
2018-04-30T02:12:34.507Z,17.79
2018-04-30T02:13:15.938Z,17.82
2018-04-30T02:13:56.509Z,17.81
2018-04-30T02:14:37.042Z,17.86
2018-04-30T02:15:17.573Z,17.82
2018-04-30T02:15:58.103Z,17.79
2018-04-30T02:16:39.439Z,17.82
2018-04-30T02:17:19.146Z,17.87
2018-04-30T02:17:59.685Z,17.79
2018-04-30T02:18:40.212Z,17.82
2018-04-30T02:19:20.742Z,17.78
2018-04-30T02:20:01.273Z,17.86
2018-04-30T02:20:41.802Z,17.77
2018-04-30T02:21:22.332Z,17.75
2018-04-30T02:22:02.866Z,17.82
2018-04-30T02:22:43.401Z,17.78
2018-04-30T02:23:23.929Z,17.72
2018-04-30T02:24:04.460Z,17.79
2018-04-30T02:24:44.989Z,17.79
2018-04-30T02:25:25.517Z,17.87
2018-04-30T02:26:06.941Z,17.78
2018-04-30T02:26:47.445Z,17.81
2018-04-30T02:27:27.081Z,17.75
2018-04-30T02:28:07.613Z,17.77
2018-04-30T02:28:48.146Z,17.79
2018-04-30T02:29:28.685Z,17.79
2018-04-30T02:30:09.256Z,17.79
2018-04-30T02:30:49.730Z,17.68
2018-04-30T02:31:30.261Z,17.89
2018-04-30T02:32:10.817Z,17.75
2018-04-30T02:32:51.341Z,17.78
2018-04-30T02:33:31.939Z,17.77
2018-04-30T02:34:12.396Z,17.72
2018-04-30T02:34:52.928Z,17.79
2018-04-30T02:35:33.949Z,17.78
2018-04-30T02:36:14.235Z,17.75
2018-04-30T02:36:54.767Z,17.72
2018-04-30T02:37:35.297Z,17.72
2018-04-30T02:38:15.825Z,17.74
2018-04-30T02:38:56.366Z,17.74
2018-04-30T02:39:36.882Z,17.71
2018-04-30T02:40:17.414Z,17.71
2018-04-30T02:40:57.927Z,17.58
2018-04-30T02:41:38.452Z,17.58
2018-04-30T02:42:18.984Z,17.59
2018-04-30T02:42:59.521Z,17.63
2018-04-30T02:43:40.048Z,17.62
2018-04-30T02:44:20.575Z,17.63
2018-04-30T02:45:01.953Z,17.62
2018-04-30T02:45:41.631Z,17.56
2018-04-30T02:46:22.163Z,17.59
2018-04-30T02:47:02.694Z,17.64
2018-04-30T02:47:43.218Z,17.59
2018-04-30T02:48:23.746Z,17.63
2018-04-30T02:49:04.277Z,17.72
2018-04-30T02:49:44.805Z,17.75
2018-04-30T02:50:25.333Z,17.74
2018-04-30T02:51:05.850Z,17.72
2018-04-30T02:51:46.377Z,17.75
2018-04-30T02:52:26.898Z,17.7
2018-04-30T02:53:07.423Z,17.75
2018-04-30T02:53:47.944Z,17.75
2018-04-30T02:54:28.445Z,17.79
2018-04-30T02:55:08.999Z,17.78
2018-04-30T02:55:49.525Z,17.78
2018-04-30T02:56:30.054Z,17.78
2018-04-30T02:57:10.573Z,17.75
2018-04-30T02:57:53.943Z,17.82
2018-04-30T02:58:34.481Z,17.84
2018-04-30T02:59:15.961Z,17.82
2018-04-30T02:59:55.537Z,17.86
2018-04-30T03:00:36.046Z,17.95
2018-04-30T03:01:17.448Z,18.03
2018-04-30T03:01:57.449Z,17.95
2018-04-30T03:02:37.941Z,18
2018-04-30T03:03:18.477Z,18.05
2018-04-30T03:03:59.947Z,18.07
2018-04-30T03:04:39.560Z,18.08
2018-04-30T03:05:20.091Z,18.1
2018-04-30T03:06:00.619Z,18.17
2018-04-30T03:06:41.385Z,18.21
2018-04-30T03:07:21.913Z,18.26
2018-04-30T03:08:02.768Z,18.26
2018-04-30T03:08:44.045Z,18.18
2018-04-30T03:09:25.113Z,18.32
2018-04-30T03:10:06.077Z,18.29
2018-04-30T03:10:46.701Z,18.37
2018-04-30T03:11:27.279Z,18.35
2018-04-30T03:12:07.843Z,18.41
2018-04-30T03:12:48.360Z,18.32
2018-04-30T03:13:28.891Z,18.35
2018-04-30T03:14:09.424Z,18.32
2018-04-30T03:14:49.958Z,18.32
2018-04-30T03:15:30.489Z,18.37
2018-04-30T03:16:11.009Z,18.32
2018-04-30T03:16:51.531Z,18.37
2018-04-30T03:17:32.068Z,18.35
2018-04-30T03:18:12.594Z,18.36
2018-04-30T03:18:53.125Z,18.39
2018-04-30T03:19:33.671Z,18.32
2018-04-30T03:20:14.193Z,18.35
2018-04-30T03:20:54.717Z,18.32
2018-04-30T03:21:35.247Z,18.33
2018-04-30T03:22:15.767Z,18.48
2018-04-30T03:22:56.294Z,18.51
2018-04-30T03:23:36.823Z,18.47
2018-04-30T03:24:17.354Z,18.35
2018-04-30T03:24:57.887Z,18.35
2018-04-30T03:25:38.425Z,18.35
2018-04-30T03:26:18.934Z,18.36
2018-04-30T03:26:59.461Z,18.29
2018-04-30T03:27:39.994Z,18.32
2018-04-30T03:28:20.534Z,18.37
2018-04-30T03:29:01.177Z,18.35
2018-04-30T03:29:41.730Z,18.23
2018-04-30T03:30:22.259Z,18.32
2018-04-30T03:31:02.784Z,18.21
2018-04-30T03:31:43.312Z,18.2
2018-04-30T03:32:23.982Z,18.18
2018-04-30T03:33:05.188Z,18.29
2018-04-30T03:33:45.743Z,18.2
2018-04-30T03:34:26.277Z,18.18
2018-04-30T03:35:06.806Z,18.15
2018-04-30T03:35:47.334Z,18.15
2018-04-30T03:36:27.861Z,18.1
2018-04-30T03:37:08.377Z,18.11
2018-04-30T03:37:48.908Z,18.12
2018-04-30T03:38:29.440Z,18.08
2018-04-30T03:39:09.971Z,18.08
2018-04-30T03:39:50.485Z,18.08
2018-04-30T03:40:32.093Z,18.07
2018-04-30T03:41:12.624Z,18.11
2018-04-30T03:41:53.214Z,18.1
2018-04-30T03:42:33.747Z,18.11
2018-04-30T03:43:14.279Z,18.11
2018-04-30T03:43:54.802Z,18.05
2018-04-30T03:44:35.329Z,18.05
2018-04-30T03:45:15.857Z,18
2018-04-30T03:45:56.391Z,18.02
2018-04-30T03:46:36.915Z,18
2018-04-30T03:47:17.442Z,18.08
2018-04-30T03:47:57.975Z,18
2018-04-30T03:48:38.499Z,18
2018-04-30T03:49:19.026Z,18.02
2018-04-30T03:49:59.554Z,17.97
2018-04-30T03:50:40.071Z,17.9
2018-04-30T03:51:20.600Z,17.92
2018-04-30T03:52:01.127Z,17.87
2018-04-30T03:52:41.650Z,17.84
2018-04-30T03:53:22.199Z,17.81
2018-04-30T03:54:02.723Z,17.82
2018-04-30T03:54:43.248Z,17.87
2018-04-30T03:55:23.777Z,17.9
2018-04-30T03:56:04.689Z,17.84
2018-04-30T03:56:45.227Z,17.81
2018-04-30T03:57:25.763Z,17.92
2018-04-30T03:58:06.290Z,17.78
2018-04-30T03:58:46.817Z,17.72
2018-04-30T03:59:27.318Z,17.72
2018-04-30T04:00:07.816Z,17.81
2018-04-30T04:00:48.330Z,17.77
2018-04-30T04:01:28.867Z,17.78
2018-04-30T04:02:09.390Z,17.74
2018-04-30T04:02:49.918Z,17.74
2018-04-30T04:03:30.442Z,17.7
2018-04-30T04:06:23.769Z,17.58
2018-04-30T04:07:04.296Z,17.56
2018-04-30T04:07:45.404Z,17.51
2018-04-30T04:08:25.355Z,17.55
2018-04-30T04:09:05.888Z,17.54
2018-04-30T04:09:46.414Z,17.51
2018-04-30T04:10:26.932Z,17.46
2018-04-30T04:11:07.461Z,17.38
2018-04-30T04:11:47.995Z,17.36
2018-04-30T04:12:28.516Z,17.26
2018-04-30T04:13:11.750Z,17.28
2018-04-30T04:13:52.269Z,17.26
2018-04-30T04:14:32.799Z,17.26
2018-04-30T04:15:13.317Z,17.19
2018-04-30T04:15:53.846Z,17.3
2018-04-30T04:16:35.255Z,17.21
2018-04-30T04:17:15.789Z,17.15
2018-04-30T04:17:56.307Z,17.23
2018-04-30T04:18:36.837Z,17.18
2018-04-30T04:19:17.344Z,17.16
2018-04-30T04:19:57.869Z,17.11
2018-04-30T04:20:38.399Z,17.12
2018-04-30T04:21:18.925Z,17.04
2018-04-30T04:21:59.456Z,17.03
2018-04-30T04:22:39.963Z,17.06
2018-04-30T04:23:20.488Z,17.03
2018-04-30T04:24:01.006Z,16.98
2018-04-30T04:24:41.525Z,16.98
2018-04-30T04:25:22.056Z,16.93
2018-04-30T04:26:02.572Z,16.88
2018-04-30T04:26:43.102Z,16.89
2018-04-30T04:27:23.637Z,16.88
2018-04-30T04:28:04.733Z,16.83
2018-04-30T04:28:45.245Z,16.82
2018-04-30T04:29:26.573Z,16.76
2018-04-30T04:30:07.096Z,16.81
2018-04-30T04:30:48.409Z,16.67
2018-04-30T04:31:28.866Z,16.78
2018-04-30T04:32:09.393Z,16.66
2018-04-30T04:32:49.927Z,16.73
2018-04-30T04:33:30.458Z,16.73
2018-04-30T04:34:10.992Z,16.56
2018-04-30T04:34:51.524Z,16.57
2018-04-30T04:35:32.057Z,16.5
2018-04-30T04:36:12.585Z,16.52
2018-04-30T04:36:53.126Z,16.53
2018-04-30T04:37:33.660Z,16.48
2018-04-30T04:38:14.191Z,16.52
2018-04-30T04:38:54.710Z,16.48
2018-04-30T04:39:35.238Z,16.45
2018-04-30T04:40:15.764Z,16.43
2018-04-30T04:40:56.298Z,16.42
2018-04-30T04:41:36.934Z,16.42
2018-04-30T04:42:17.359Z,16.45
2018-04-30T04:42:57.885Z,16.42
2018-04-30T04:43:38.402Z,16.45
2018-04-30T04:44:18.938Z,16.39
2018-04-30T04:44:59.463Z,16.3
2018-04-30T04:45:39.989Z,16.41
2018-04-30T04:46:20.517Z,16.28
2018-04-30T04:47:01.047Z,16.24
2018-04-30T04:47:41.567Z,16.24
2018-04-30T04:48:22.100Z,16.3
2018-04-30T04:49:02.626Z,16.17
2018-04-30T04:49:43.155Z,16.24
2018-04-30T04:50:23.692Z,16.15
2018-04-30T04:51:04.221Z,16.12
2018-04-30T04:51:44.741Z,16.05
2018-04-30T04:52:25.274Z,16.02
2018-04-30T04:53:05.793Z,16.04
2018-04-30T04:53:46.319Z,16
2018-04-30T04:54:26.845Z,15.9
2018-04-30T04:55:07.359Z,15.9
2018-04-30T04:55:47.896Z,15.9
2018-04-30T04:56:28.423Z,15.83
2018-04-30T04:57:08.952Z,15.8
2018-04-30T04:57:49.474Z,15.75
2018-04-30T04:58:30.053Z,15.82
2018-04-30T04:59:10.540Z,15.75
2018-04-30T04:59:51.068Z,15.72
2018-04-30T05:00:31.600Z,15.62
2018-04-30T05:01:12.122Z,15.6
2018-04-30T05:01:52.648Z,15.67
2018-04-30T05:02:33.183Z,15.69
2018-04-30T05:03:14.592Z,15.68
2018-04-30T05:03:55.115Z,15.71
2018-04-30T05:04:35.643Z,15.56
2018-04-30T05:05:16.169Z,15.56
2018-04-30T05:05:56.702Z,15.64
2018-04-30T05:06:37.239Z,15.6
2018-04-30T05:07:17.776Z,15.59
2018-04-30T05:07:58.291Z,15.56
2018-04-30T05:08:38.819Z,15.51
2018-04-30T05:09:19.348Z,15.51
2018-04-30T05:09:59.875Z,15.39
2018-04-30T05:10:40.401Z,15.46
2018-04-30T05:11:20.922Z,15.36
2018-04-30T05:12:01.453Z,15.34
2018-04-30T05:12:42.004Z,15.34
2018-04-30T05:13:22.530Z,15.25
2018-04-30T05:14:03.056Z,15.34
2018-04-30T05:14:43.580Z,15.25
2018-04-30T05:15:24.107Z,15.21
2018-04-30T05:16:04.644Z,15.2
2018-04-30T05:16:45.177Z,15.21
2018-04-30T05:17:25.697Z,15.17
2018-04-30T05:18:06.240Z,15.21
2018-04-30T05:18:46.761Z,15.14
2018-04-30T05:19:27.288Z,15.2
2018-04-30T05:20:07.812Z,15.13
2018-04-30T05:20:48.343Z,15.17
2018-04-30T05:21:28.851Z,15.14
2018-04-30T05:22:09.377Z,15.07
2018-04-30T05:22:49.907Z,15.07
2018-04-30T05:23:30.431Z,15.03
2018-04-30T05:24:11.772Z,14.98
2018-04-30T05:24:52.306Z,15.02
2018-04-30T05:25:32.833Z,15.03
2018-04-30T05:26:13.357Z,14.92
2018-04-30T05:26:53.880Z,14.96
2018-04-30T05:27:34.409Z,14.94
2018-04-30T05:28:14.934Z,14.86
2018-04-30T05:28:55.462Z,14.81
2018-04-30T05:29:35.988Z,14.92
2018-04-30T05:30:16.513Z,14.92
2018-04-30T05:30:57.039Z,14.89
2018-04-30T05:31:37.561Z,14.95
2018-04-30T05:32:18.089Z,14.98
2018-04-30T05:32:58.618Z,14.91
2018-04-30T05:33:39.143Z,14.89
2018-04-30T05:34:19.733Z,14.94
2018-04-30T05:35:00.256Z,14.91
2018-04-30T05:35:40.787Z,14.96
2018-04-30T05:36:21.314Z,14.95
2018-04-30T05:37:01.840Z,14.92
2018-04-30T05:37:42.367Z,14.91
2018-04-30T05:38:23.423Z,14.96
2018-04-30T05:39:03.691Z,14.88
2018-04-30T05:39:44.219Z,14.95
2018-04-30T05:40:24.738Z,15.02
2018-04-30T05:41:05.275Z,14.99
2018-04-30T05:41:45.803Z,14.98
2018-04-30T05:42:26.333Z,15.01
2018-04-30T05:43:06.857Z,14.99
2018-04-30T05:43:47.378Z,15.01
2018-04-30T05:44:27.905Z,15.01
2018-04-30T05:45:08.440Z,15.01
2018-04-30T05:45:48.963Z,14.94
2018-04-30T05:46:29.486Z,14.92
2018-04-30T05:47:10.008Z,14.96
2018-04-30T05:47:50.532Z,14.83
2018-04-30T05:48:31.054Z,14.81
2018-04-30T05:49:11.580Z,14.88
2018-04-30T05:49:52.112Z,14.86
2018-04-30T05:50:32.647Z,14.8
2018-04-30T05:51:13.181Z,14.77
2018-04-30T05:51:53.696Z,14.84
2018-04-30T05:52:34.219Z,14.78
2018-04-30T05:53:14.724Z,14.77
2018-04-30T05:53:55.236Z,14.78
2018-04-30T05:54:35.747Z,14.77
2018-04-30T05:55:17.227Z,14.69
2018-04-30T05:55:56.836Z,14.77
2018-04-30T05:56:37.356Z,14.68
2018-04-30T05:57:17.826Z,14.72
2018-04-30T05:57:58.354Z,14.75
2018-04-30T05:58:38.863Z,14.69
2018-04-30T05:59:19.374Z,14.7
2018-04-30T05:59:59.868Z,14.69
2018-04-30T06:00:40.355Z,14.68
2018-04-30T06:01:20.845Z,14.64
2018-04-30T06:02:01.360Z,14.7
2018-04-30T06:02:41.899Z,14.62
2018-04-30T06:03:22.421Z,14.55
2018-04-30T06:04:02.909Z,14.58
2018-04-30T06:04:43.382Z,14.64
2018-04-30T06:05:23.929Z,14.64
2018-04-30T06:06:04.437Z,14.57
2018-04-30T06:06:44.946Z,14.61
2018-04-30T06:07:25.396Z,14.6
2018-04-30T06:08:05.939Z,14.57
2018-04-30T06:08:46.457Z,14.58
2018-04-30T06:09:26.950Z,14.62
2018-04-30T06:10:07.441Z,14.65
2018-04-30T06:10:47.952Z,14.64
2018-04-30T06:11:29.366Z,14.7
2018-04-30T06:12:09.959Z,14.7
2018-04-30T06:12:50.432Z,14.86
2018-04-30T06:13:30.955Z,14.91
2018-04-30T06:14:11.465Z,14.94
2018-04-30T06:14:51.930Z,14.96
2018-04-30T06:15:32.433Z,14.88
2018-04-30T06:16:12.950Z,14.92
2018-04-30T06:16:53.422Z,15.02
2018-04-30T06:17:33.974Z,15.03
2018-04-30T06:18:14.391Z,15.02
2018-04-30T06:18:55.600Z,15.07
2018-04-30T06:19:36.090Z,15.06
2018-04-30T06:20:16.576Z,14.99
2018-04-30T06:20:57.046Z,14.99
2018-04-30T06:21:37.566Z,15.06
2018-04-30T06:22:18.045Z,14.99
2018-04-30T06:22:58.560Z,15.06
2018-04-30T06:23:39.021Z,15.03
2018-04-30T06:24:19.525Z,15.02
2018-04-30T06:24:59.983Z,15.02
2018-04-30T06:25:40.530Z,15.03
2018-04-30T06:26:20.985Z,15.01
2018-04-30T06:27:01.520Z,15.01
2018-04-30T06:27:41.986Z,15.13
2018-04-30T06:28:22.483Z,15.16
2018-04-30T06:29:02.999Z,15.19
2018-04-30T06:29:43.472Z,15.2
2018-04-30T06:30:25.481Z,15.27
2018-04-30T06:31:05.976Z,15.39
2018-04-30T06:31:46.477Z,15.44
2018-04-30T06:32:26.957Z,15.5
2018-04-30T06:33:08.423Z,15.62
2018-04-30T06:33:48.045Z,15.65
2018-04-30T06:34:28.522Z,15.56
2018-04-30T06:35:09.015Z,15.59
2018-04-30T06:35:49.538Z,15.59
2018-04-30T06:36:30.061Z,15.5
2018-04-30T06:37:10.525Z,15.64
2018-04-30T06:37:51.002Z,15.64
2018-04-30T06:38:31.547Z,15.6
2018-04-30T06:39:12.935Z,15.5
2018-04-30T06:39:52.524Z,15.5
2018-04-30T06:40:34.788Z,15.51
2018-04-30T06:41:15.223Z,15.5
2018-04-30T06:41:55.725Z,15.62
2018-04-30T06:42:37.438Z,15.53
2018-04-30T06:43:18.038Z,15.57
2018-04-30T06:43:58.485Z,15.56
2018-04-30T06:44:38.949Z,15.49
2018-04-30T06:45:19.434Z,15.6
2018-04-30T06:45:59.937Z,15.54
2018-04-30T06:46:40.451Z,15.62
2018-04-30T06:47:20.950Z,15.64
2018-04-30T06:48:01.429Z,15.67
2018-04-30T06:48:41.930Z,15.53
2018-04-30T06:49:22.429Z,15.57
2018-04-30T06:50:02.938Z,15.62
2018-04-30T06:50:43.414Z,15.56
2018-04-30T06:51:23.945Z,15.6
2018-04-30T06:52:04.994Z,15.68
2018-04-30T06:52:45.489Z,15.71
2018-04-30T06:53:26.015Z,15.69
2018-04-30T06:54:06.441Z,15.74
2018-04-30T06:54:46.941Z,15.86
2018-04-30T06:55:27.463Z,15.86
2018-04-30T06:56:08.157Z,15.83
2018-04-30T06:56:48.652Z,15.93
2018-04-30T06:57:29.147Z,15.83
2018-04-30T06:58:09.669Z,15.82
2018-04-30T06:58:50.180Z,15.78
2018-04-30T06:59:30.634Z,15.82
2018-04-30T07:00:11.158Z,15.75
2018-04-30T07:00:51.623Z,15.83
2018-04-30T07:01:32.105Z,15.78
2018-04-30T07:02:12.639Z,15.74
2018-04-30T07:02:53.153Z,15.78
2018-04-30T07:03:33.634Z,15.68
2018-04-30T07:04:14.122Z,15.74
2018-04-30T07:04:54.570Z,15.6
2018-04-30T07:05:35.106Z,15.68
2018-04-30T07:06:15.581Z,15.74
2018-04-30T07:06:56.080Z,15.67
2018-04-30T07:07:36.597Z,15.65
2018-04-30T07:08:17.085Z,15.57
2018-04-30T07:08:57.597Z,15.65
2018-04-30T07:09:38.328Z,15.53
2018-04-30T07:10:18.583Z,15.6
2018-04-30T07:10:59.057Z,15.56
2018-04-30T07:11:40.065Z,15.51
2018-04-30T07:12:20.541Z,15.51
2018-04-30T07:13:01.052Z,15.53
2018-04-30T07:13:41.526Z,15.46
2018-04-30T07:14:22.052Z,15.35
2018-04-30T07:15:02.537Z,15.29
2018-04-30T07:15:43.056Z,15.25
2018-04-30T07:16:23.554Z,15.27
2018-04-30T07:17:05.003Z,15.25
2018-04-30T07:17:44.592Z,15.2
2018-04-30T07:18:25.095Z,15.2
2018-04-30T07:19:05.564Z,15.17
2018-04-30T07:19:46.078Z,15.21
2018-04-30T07:20:26.605Z,15.14
2018-04-30T07:21:07.160Z,15.1
2018-04-30T07:21:47.626Z,15.06
2018-04-30T07:22:28.085Z,15.02
2018-04-30T07:23:08.563Z,15.02
2018-04-30T07:23:49.056Z,15.06
2018-04-30T07:24:29.531Z,15.03
2018-04-30T07:25:10.043Z,15.02
2018-04-30T07:25:50.594Z,15.02
2018-04-30T07:26:31.933Z,14.86
2018-04-30T07:27:11.603Z,14.99
2018-04-30T07:27:52.144Z,15.02
2018-04-30T07:28:32.590Z,14.98
2018-04-30T07:29:13.059Z,15.09
2018-04-30T07:29:53.586Z,15.06
2018-04-30T07:30:34.046Z,15.2
2018-04-30T07:31:14.538Z,15.25
2018-04-30T07:31:55.051Z,15.29
2018-04-30T07:32:35.554Z,15.32
2018-04-30T07:33:16.072Z,15.47
2018-04-30T07:33:57.096Z,15.51
2018-04-30T07:34:37.616Z,15.57
2018-04-30T07:35:18.103Z,15.71
2018-04-30T07:35:58.596Z,15.93
2018-04-30T07:36:39.107Z,16.12
2018-04-30T07:37:20.209Z,16.48
2018-04-30T07:38:00.715Z,16.75
2018-04-30T07:38:41.202Z,17.03
2018-04-30T07:39:21.686Z,17.43
2018-04-30T07:40:02.183Z,17.84
2018-04-30T07:40:43.435Z,18.05
2018-04-30T07:41:23.125Z,18.33
2018-04-30T07:42:03.610Z,18.6
2018-04-30T07:42:44.115Z,18.84
2018-04-30T07:43:24.631Z,19.04
2018-04-30T07:44:05.118Z,19.04
2018-04-30T07:44:45.615Z,19.25
2018-04-30T07:45:26.092Z,19.94
2018-04-30T07:46:06.574Z,20.73
2018-04-30T07:46:47.088Z,21.17
2018-04-30T07:47:27.565Z,22.35
2018-04-30T07:48:08.079Z,23.1
2018-04-30T07:48:48.559Z,23.58
2018-04-30T07:49:29.045Z,24.15
2018-04-30T07:50:09.556Z,24.28
2018-04-30T07:50:50.019Z,24.31
2018-04-30T07:51:30.524Z,24.2
2018-04-30T07:52:11.024Z,24.32
2018-04-30T07:52:51.528Z,24.84
2018-04-30T07:53:32.022Z,24.95
2018-04-30T07:54:12.500Z,25.02
2018-04-30T07:54:53.003Z,25.13
2018-04-30T07:55:33.512Z,25.28
2018-04-30T07:56:14.939Z,25.45
2018-04-30T07:56:54.471Z,25.51
2018-04-30T07:57:34.992Z,25.4
2018-04-30T07:58:15.467Z,25.28
2018-04-30T07:58:55.962Z,25.3
2018-04-30T07:59:37.439Z,25.46
2018-04-30T08:00:16.978Z,25.51
2018-04-30T08:00:57.458Z,27.22
2018-04-30T08:01:37.964Z,27.04
2018-04-30T08:02:18.428Z,27.28
2018-04-30T08:02:59.043Z,29.71
2018-04-30T08:03:39.435Z,30.37
2018-04-30T08:04:19.923Z,30.53
2018-04-30T08:05:00.443Z,32.59
2018-04-30T08:05:40.987Z,33.75
2018-04-30T08:06:21.513Z,33.39
2018-04-30T08:07:02.001Z,33.42
2018-04-30T08:07:42.528Z,35.96
2018-04-30T08:08:23.017Z,38.52
2018-04-30T08:09:03.564Z,40.35
2018-04-30T08:09:44.001Z,41.42
2018-04-30T08:10:24.569Z,42.96
2018-04-30T08:11:04.987Z,44.21
2018-04-30T08:11:45.501Z,45.23
2018-04-30T08:12:26.901Z,46.46
2018-04-30T08:13:07.413Z,47.34
2018-04-30T08:13:47.922Z,47.8
2018-04-30T08:14:28.449Z,48.66
2018-04-30T08:15:08.983Z,49.71
2018-04-30T08:15:49.546Z,50.59
2018-04-30T08:16:30.051Z,51.47
2018-04-30T08:17:10.581Z,52.16
2018-04-30T08:17:51.124Z,52.98
2018-04-30T08:18:31.667Z,53.5
2018-04-30T08:19:12.208Z,53.93
2018-04-30T08:19:52.749Z,53.4
2018-04-30T08:20:33.282Z,52.79
2018-04-30T08:21:13.824Z,51.11
2018-04-30T08:21:54.364Z,52.74
2018-04-30T08:22:34.901Z,52.46
2018-04-30T08:23:15.437Z,53.72
2018-04-30T08:23:55.977Z,53.01
2018-04-30T08:24:36.521Z,50.85
2018-04-30T08:25:17.820Z,52.57
2018-04-30T08:25:58.354Z,51.07
2018-04-30T08:26:38.897Z,49.06
2018-04-30T08:27:19.437Z,51.21
2018-04-30T08:27:59.974Z,53.03
2018-04-30T08:28:40.515Z,50.33
2018-04-30T08:29:21.060Z,49.5
2018-04-30T08:30:01.594Z,50.48
2018-04-30T08:30:42.194Z,51.19
2018-04-30T08:31:22.676Z,52.07
2018-04-30T08:32:03.220Z,52.15
2018-04-30T08:32:44.462Z,51.96
2018-04-30T08:33:24.626Z,50.47
2018-04-30T08:34:05.178Z,50.54
2018-04-30T08:34:45.722Z,49.31
2018-04-30T08:35:26.279Z,47.45
2018-04-30T08:36:06.819Z,47.06
2018-04-30T08:36:47.361Z,49.13
2018-04-30T08:37:27.894Z,49.39
2018-04-30T08:38:08.436Z,51.86
2018-04-30T08:38:48.977Z,53.1
2018-04-30T08:39:29.515Z,52.98
2018-04-30T08:40:10.044Z,52.73
2018-04-30T08:40:52.265Z,52.12
2018-04-30T08:41:32.768Z,50.09
2018-04-30T08:42:13.295Z,52.16
2018-04-30T08:42:53.832Z,49.78
2018-04-30T08:43:34.364Z,48.11
2018-04-30T08:44:14.901Z,46.34
2018-04-30T08:44:55.444Z,45.01
2018-04-30T08:45:35.984Z,47.97
2018-04-30T08:46:16.528Z,51.4